Time;durP1;ratioP1;P1;durP2;ratioP2;P2;SDS_P1;SDS_P2;PMS_P1;PMS_P2;Temp;Humidity;BMP_temperature;BMP_pressure;BME280_temperature;BME280_humidity;BME280_pressure;Samples;Min_cycle;Max_cycle;Signal;HPM_P1;HPM_P2
2023/03/26 00:01:37;;;;;;;20.65;8.95;;;;;;;;;;4998597;28;20022;-80
2023/03/26 00:04:04;;;;;;;20.40;9.32;;;;;;;;;;5030670;28;20045;-79
2023/03/26 00:06:37;;;;;;;20.63;9.25;;;;;;;;;;5024530;28;20029;-81
2023/03/26 00:09:04;;;;;;;18.45;8.13;;;;;;;;;;5026921;28;20030;-81
2023/03/26 00:11:30;;;;;;;24.02;8.68;;;;;;;;;;5027616;28;20045;-80
2023/03/26 00:13:57;;;;;;;20.50;8.15;;;;;;;;;;5002239;28;20109;-81
2023/03/26 00:16:24;;;;;;;16.90;8.45;;;;;;;;;;5031479;28;20030;-81
2023/03/26 00:18:58;;;;;;;20.55;8.55;;;;;;;;;;5019579;28;20034;-80
2023/03/26 00:21:26;;;;;;;21.63;9.15;;;;;;;;;;5020355;28;20002;-83
2023/03/26 00:23:54;;;;;;;19.50;7.53;;;;;;;;;;5027234;28;20034;-81
2023/03/26 00:26:20;;;;;;;16.95;8.07;;;;;;;;;;5028397;28;20152;-80
2023/03/26 00:28:49;;;;;;;19.48;7.70;;;;;;;;;;5031532;28;20041;-80
2023/03/26 00:31:16;;;;;;;13.13;6.78;;;;;;;;;;5006639;28;20029;-80
2023/03/26 00:33:42;;;;;;;12.98;7.05;;;;;;;;;;5020689;28;20057;-80
2023/03/26 00:36:10;;;;;;;16.77;7.47;;;;;;;;;;5006873;28;20029;-80
2023/03/26 00:38:40;;;;;;;15.45;7.80;;;;;;;;;;5005755;28;20022;-80
2023/03/26 00:41:21;;;;;;;12.32;7.65;;;;;;;;;;5012113;28;20010;-80
2023/03/26 00:43:48;;;;;;;13.38;7.03;;;;;;;;;;5006872;28;20073;-80
2023/03/26 00:46:16;;;;;;;15.07;7.45;;;;;;;;;;5023727;28;20026;-80
2023/03/26 00:48:43;;;;;;;13.77;6.20;;;;;;;;;;5028721;28;20014;-81
2023/03/26 00:51:10;;;;;;;13.77;5.40;;;;;;;;;;5029283;28;20066;-81
2023/03/26 00:53:37;;;;;;;16.95;6.72;;;;;;;;;;5019612;28;20027;-80
2023/03/26 00:56:05;;;;;;;18.50;7.18;;;;;;;;;;5018078;28;20093;-80
2023/03/26 00:58:31;;;;;;;18.15;6.32;;;;;;;;;;5021916;28;20018;-80
2023/03/26 01:00:59;;;;;;;10.82;5.05;;;;;;;;;;5022221;28;20020;-80
2023/03/26 01:03:29;;;;;;;16.40;5.50;;;;;;;;;;5024358;28;20092;-81
2023/03/26 01:06:01;;;;;;;10.93;5.88;;;;;;;;;;5006217;28;20239;-81
2023/03/26 01:08:47;;;;;;;16.27;6.40;;;;;;;;;;5024748;28;20026;-81
2023/03/26 01:11:19;;;;;;;14.65;6.20;;;;;;;;;;5017848;28;20025;-82
2023/03/26 01:13:56;;;;;;;11.77;6.13;;;;;;;;;;5011428;28;20031;-80
2023/03/26 01:16:27;;;;;;;14.65;6.22;;;;;;;;;;5008965;28;20027;-81
2023/03/26 01:18:57;;;;;;;19.13;6.82;;;;;;;;;;5029624;28;20033;-81
2023/03/26 01:21:28;;;;;;;15.48;5.78;;;;;;;;;;5016993;28;20275;-81
2023/03/26 01:24:03;;;;;;;19.08;6.97;;;;;;;;;;5031738;28;20042;-81
2023/03/26 01:26:36;;;;;;;26.35;8.35;;;;;;;;;;5025093;28;20435;-80
2023/03/26 01:29:03;;;;;;;20.30;7.15;;;;;;;;;;5012860;28;20066;-82
2023/03/26 01:31:37;;;;;;;15.52;6.93;;;;;;;;;;5031591;28;20023;-80
2023/03/26 01:34:20;;;;;;;22.30;7.28;;;;;;;;;;5028179;28;20014;-79
2023/03/26 01:37:13;;;;;;;16.88;7.30;;;;;;;;;;5013166;28;20034;-80
2023/03/26 01:39:39;;;;;;;23.88;8.60;;;;;;;;;;5023444;28;20030;-80
2023/03/26 01:42:08;;;;;;;28.17;9.23;;;;;;;;;;5019699;28;20134;-82
2023/03/26 01:44:38;;;;;;;23.20;8.27;;;;;;;;;;5028449;28;20041;-81
2023/03/26 01:47:05;;;;;;;29.88;8.57;;;;;;;;;;5032284;28;20077;-81
2023/03/26 01:49:31;;;;;;;18.00;7.45;;;;;;;;;;5036749;28;20037;-81
2023/03/26 01:51:58;;;;;;;22.77;8.38;;;;;;;;;;5022889;28;21575;-80
2023/03/26 01:54:26;;;;;;;21.30;8.00;;;;;;;;;;5020485;28;20080;-81
2023/03/26 01:57:11;;;;;;;22.67;7.50;;;;;;;;;;5029803;28;20475;-81
2023/03/26 02:00:13;;;;;;;18.07;7.93;;;;;;;;;;5020078;28;20033;-81
2023/03/26 02:02:48;;;;;;;55.33;11.63;;;;;;;;;;4947652;28;20030;-80
2023/03/26 02:05:14;;;;;;;21.95;8.07;;;;;;;;;;5012153;28;20041;-81
2023/03/26 02:08:08;;;;;;;32.38;10.27;;;;;;;;;;5024059;28;20033;-80
2023/03/26 02:10:44;;;;;;;29.63;8.80;;;;;;;;;;4984863;28;20030;-80
2023/03/26 02:13:11;;;;;;;33.08;9.65;;;;;;;;;;5018951;28;20022;-80
2023/03/26 02:15:38;;;;;;;21.00;7.97;;;;;;;;;;5019006;28;20531;-80
2023/03/26 02:18:04;;;;;;;21.55;7.22;;;;;;;;;;5018204;28;20037;-80
2023/03/26 02:20:31;;;;;;;27.23;8.95;;;;;;;;;;5021472;28;20523;-81
2023/03/26 02:22:58;;;;;;;22.98;7.07;;;;;;;;;;5011696;28;20085;-81
2023/03/26 02:25:24;;;;;;;24.02;7.85;;;;;;;;;;5027264;28;20049;-79
2023/03/26 02:27:51;;;;;;;23.98;8.23;;;;;;;;;;5005317;28;20025;-79
2023/03/26 02:30:20;;;;;;;18.75;7.10;;;;;;;;;;5031630;28;20025;-81
2023/03/26 02:32:46;;;;;;;20.02;6.65;;;;;;;;;;5023198;28;20165;-80
2023/03/26 02:35:12;;;;;;;31.52;8.05;;;;;;;;;;5022161;28;20022;-81
2023/03/26 02:37:40;;;;;;;20.60;7.60;;;;;;;;;;5025279;28;20045;-80
2023/03/26 02:40:10;;;;;;;17.08;6.03;;;;;;;;;;5015501;28;20026;-81
2023/03/26 02:42:37;;;;;;;18.13;5.93;;;;;;;;;;5037641;28;20403;-80
2023/03/26 02:45:03;;;;;;;15.73;5.90;;;;;;;;;;5008581;28;20030;-80
2023/03/26 02:47:30;;;;;;;17.48;7.22;;;;;;;;;;5019882;28;20057;-80
2023/03/26 02:49:56;;;;;;;34.10;7.20;;;;;;;;;;5019414;28;20041;-82
2023/03/26 02:52:22;;;;;;;24.05;6.68;;;;;;;;;;5013695;28;20061;-80
2023/03/26 02:54:48;;;;;;;22.40;6.32;;;;;;;;;;5012911;28;20028;-80
2023/03/26 02:57:14;;;;;;;18.70;5.45;;;;;;;;;;5021021;28;20026;-81
2023/03/26 02:59:40;;;;;;;15.13;5.20;;;;;;;;;;5014199;28;20030;-79
2023/03/26 03:02:07;;;;;;;24.08;6.10;;;;;;;;;;5017110;28;20030;-79
2023/03/26 03:04:33;;;;;;;18.60;6.05;;;;;;;;;;5012856;28;20022;-79
2023/03/26 03:06:59;;;;;;;16.50;5.45;;;;;;;;;;5034113;28;20036;-81
2023/03/26 03:09:25;;;;;;;12.80;4.80;;;;;;;;;;5021377;28;20030;-79
2023/03/26 03:11:51;;;;;;;16.73;4.88;;;;;;;;;;5024756;28;20118;-79
2023/03/26 03:14:18;;;;;;;14.68;4.65;;;;;;;;;;5021789;28;20081;-83
2023/03/26 03:16:44;;;;;;;12.73;6.22;;;;;;;;;;5027914;28;20426;-80
2023/03/26 03:19:12;;;;;;;16.48;4.38;;;;;;;;;;5009152;28;20030;-79
2023/03/26 03:21:38;;;;;;;15.68;4.47;;;;;;;;;;5019290;28;20033;-80
2023/03/26 03:24:04;;;;;;;15.00;4.90;;;;;;;;;;5009445;28;20054;-80
2023/03/26 03:26:30;;;;;;;13.40;5.07;;;;;;;;;;5013942;28;20044;-80
2023/03/26 03:28:57;;;;;;;17.30;5.65;;;;;;;;;;5016929;28;20030;-81
2023/03/26 03:31:24;;;;;;;18.42;5.57;;;;;;;;;;5015536;28;20029;-79
2023/03/26 03:33:51;;;;;;;12.52;4.93;;;;;;;;;;5019904;28;20303;-80
2023/03/26 03:36:20;;;;;;;21.73;6.55;;;;;;;;;;5010458;28;20026;-80
2023/03/26 03:38:47;;;;;;;16.13;5.40;;;;;;;;;;5015381;28;20029;-80
2023/03/26 03:41:13;;;;;;;14.45;5.38;;;;;;;;;;5001871;28;20038;-80
2023/03/26 03:43:40;;;;;;;15.93;6.00;;;;;;;;;;5000635;28;20034;-79
2023/03/26 03:46:06;;;;;;;13.35;4.25;;;;;;;;;;5017340;28;20030;-79
2023/03/26 03:48:32;;;;;;;10.85;4.25;;;;;;;;;;5009215;28;20141;-79
2023/03/26 03:50:58;;;;;;;11.57;3.78;;;;;;;;;;5013138;28;20101;-79
2023/03/26 03:53:28;;;;;;;13.60;4.43;;;;;;;;;;5020438;28;20033;-80
2023/03/26 03:55:58;;;;;;;11.85;4.60;;;;;;;;;;5020095;28;20017;-80
2023/03/26 03:58:26;;;;;;;17.65;5.68;;;;;;;;;;5016307;28;20531;-79
2023/03/26 04:00:59;;;;;;;13.18;5.50;;;;;;;;;;5014497;28;20018;-79
2023/03/26 04:03:26;;;;;;;18.05;5.00;;;;;;;;;;5017996;28;20026;-82
2023/03/26 04:05:53;;;;;;;17.25;4.38;;;;;;;;;;5015895;28;20068;-80
2023/03/26 04:08:20;;;;;;;17.15;5.32;;;;;;;;;;5016977;28;20028;-80
2023/03/26 04:10:46;;;;;;;8.95;6.05;;;;;;;;;;5032003;28;20116;-80
2023/03/26 04:13:13;;;;;;;17.75;5.10;;;;;;;;;;5008062;28;20060;-81
2023/03/26 04:15:40;;;;;;;15.13;5.45;;;;;;;;;;5019379;28;20031;-80
2023/03/26 04:18:09;;;;;;;18.92;5.75;;;;;;;;;;5025686;28;20024;-80
2023/03/26 04:20:37;;;;;;;17.88;6.05;;;;;;;;;;5015455;28;20030;-80
2023/03/26 04:23:03;;;;;;;13.13;5.28;;;;;;;;;;5019710;28;20017;-79
2023/03/26 04:25:32;;;;;;;13.50;4.85;;;;;;;;;;5018502;28;20047;-79
2023/03/26 04:28:00;;;;;;;21.98;6.78;;;;;;;;;;4988872;28;20030;-79
2023/03/26 04:30:26;;;;;;;21.05;5.57;;;;;;;;;;4995155;28;20015;-80
2023/03/26 04:32:53;;;;;;;13.30;5.75;;;;;;;;;;4997667;28;20022;-79
2023/03/26 04:35:19;;;;;;;17.73;4.78;;;;;;;;;;4985026;28;20046;-80
2023/03/26 04:37:45;;;;;;;14.63;6.10;;;;;;;;;;4998033;28;20464;-78
2023/03/26 04:40:15;;;;;;;17.73;5.20;;;;;;;;;;5000311;28;20040;-79
2023/03/26 04:42:44;;;;;;;17.55;6.20;;;;;;;;;;4999160;28;20044;-80
2023/03/26 04:45:11;;;;;;;18.77;5.47;;;;;;;;;;4996816;28;20038;-79
2023/03/26 04:47:38;;;;;;;19.15;5.32;;;;;;;;;;4997073;28;20115;-80
2023/03/26 04:50:05;;;;;;;13.20;5.15;;;;;;;;;;5002173;28;20296;-79
2023/03/26 04:52:32;;;;;;;18.48;5.38;;;;;;;;;;5000589;28;20293;-79
2023/03/26 04:54:58;;;;;;;19.08;4.97;;;;;;;;;;5005311;28;20038;-79
2023/03/26 04:57:34;;;;;;;18.35;4.68;;;;;;;;;;5005356;28;20029;-79
2023/03/26 05:00:07;;;;;;;17.08;4.13;;;;;;;;;;5000297;28;20018;-80
2023/03/26 05:02:38;;;;;;;14.10;4.25;;;;;;;;;;4996807;28;20046;-81
2023/03/26 05:05:05;;;;;;;16.33;4.65;;;;;;;;;;4992538;28;20014;-79
2023/03/26 05:07:32;;;;;;;19.52;4.28;;;;;;;;;;4999204;28;20057;-80
2023/03/26 05:09:58;;;;;;;16.85;4.38;;;;;;;;;;5001847;28;20049;-80
2023/03/26 05:12:24;;;;;;;17.88;4.32;;;;;;;;;;5014990;28;20051;-80
2023/03/26 05:14:50;;;;;;;15.00;4.25;;;;;;;;;;4991834;28;20501;-81
2023/03/26 05:17:17;;;;;;;10.20;4.43;;;;;;;;;;5008192;28;20030;-82
2023/03/26 05:19:45;;;;;;;14.63;4.35;;;;;;;;;;5006098;28;20022;-79
2023/03/26 05:22:11;;;;;;;16.77;4.85;;;;;;;;;;5006119;28;20017;-80
2023/03/26 05:24:37;;;;;;;18.83;4.15;;;;;;;;;;5007135;28;20041;-81
2023/03/26 05:27:03;;;;;;;15.98;4.35;;;;;;;;;;5013059;28;20074;-80
2023/03/26 05:29:30;;;;;;;20.65;4.20;;;;;;;;;;5009731;28;20030;-81
2023/03/26 05:31:56;;;;;;;12.75;3.80;;;;;;;;;;5003974;28;20022;-80
2023/03/26 05:34:25;;;;;;;16.27;4.25;;;;;;;;;;4993150;28;20049;-80
2023/03/26 05:36:57;;;;;;;22.33;4.40;;;;;;;;;;5003505;28;19998;-81
2023/03/26 05:39:25;;;;;;;9.05;3.63;;;;;;;;;;5013896;28;20027;-80
2023/03/26 05:41:52;;;;;;;14.70;5.43;;;;;;;;;;5011929;28;20026;-79
2023/03/26 05:44:18;;;;;;;13.15;3.40;;;;;;;;;;5010685;28;20137;-82
2023/03/26 05:46:44;;;;;;;10.73;5.15;;;;;;;;;;5000312;28;20038;-80
2023/03/26 05:49:10;;;;;;;12.93;4.10;;;;;;;;;;4991640;28;20033;-79
2023/03/26 05:51:37;;;;;;;20.52;3.95;;;;;;;;;;4995708;28;20038;-80
2023/03/26 05:54:03;;;;;;;8.75;3.90;;;;;;;;;;4992636;28;20053;-79
2023/03/26 05:56:29;;;;;;;18.15;3.70;;;;;;;;;;4998714;28;20078;-79
2023/03/26 05:58:55;;;;;;;12.68;3.80;;;;;;;;;;5003881;28;20033;-80
2023/03/26 06:01:24;;;;;;;11.80;5.68;;;;;;;;;;4991111;28;20023;-79
2023/03/26 06:03:51;;;;;;;12.48;5.00;;;;;;;;;;5007110;28;20041;-80
2023/03/26 06:06:18;;;;;;;19.50;5.00;;;;;;;;;;5010712;28;20026;-80
2023/03/26 06:08:50;;;;;;;15.15;5.60;;;;;;;;;;4997135;28;20062;-80
2023/03/26 06:11:18;;;;;;;19.48;4.68;;;;;;;;;;4993618;28;20022;-79
2023/03/26 06:13:45;;;;;;;17.77;4.03;;;;;;;;;;4999855;28;20536;-79
2023/03/26 06:16:11;;;;;;;14.77;4.93;;;;;;;;;;5010416;28;20050;-79
2023/03/26 06:18:37;;;;;;;20.05;6.80;;;;;;;;;;4995247;28;20026;-79
2023/03/26 06:21:04;;;;;;;15.10;6.30;;;;;;;;;;4998588;28;20027;-80
2023/03/26 06:23:31;;;;;;;25.95;5.35;;;;;;;;;;4995196;28;20118;-78
2023/03/26 06:25:58;;;;;;;19.48;5.88;;;;;;;;;;5018072;28;20068;-79
2023/03/26 06:28:24;;;;;;;17.92;6.20;;;;;;;;;;5030489;28;20070;-79
2023/03/26 06:30:51;;;;;;;17.70;4.57;;;;;;;;;;5029971;28;20030;-79
2023/03/26 06:33:17;;;;;;;23.08;6.07;;;;;;;;;;5025674;28;20048;-79
2023/03/26 06:35:44;;;;;;;20.60;5.35;;;;;;;;;;5023964;28;20026;-79
2023/03/26 06:38:10;;;;;;;17.83;5.88;;;;;;;;;;5013416;28;20291;-79
2023/03/26 06:40:36;;;;;;;21.73;5.80;;;;;;;;;;5029284;28;20033;-80
2023/03/26 06:43:03;;;;;;;19.88;5.32;;;;;;;;;;5030748;28;20033;-80
2023/03/26 06:45:29;;;;;;;19.33;5.97;;;;;;;;;;5000067;28;20077;-80
2023/03/26 06:47:55;;;;;;;32.05;6.05;;;;;;;;;;5015540;28;20063;-80
2023/03/26 06:50:22;;;;;;;22.55;6.50;;;;;;;;;;5019274;28;20014;-81
2023/03/26 06:52:49;;;;;;;14.10;5.72;;;;;;;;;;5023827;28;20030;-79
2023/03/26 06:55:15;;;;;;;19.08;5.72;;;;;;;;;;5017847;28;20022;-79
2023/03/26 06:57:44;;;;;;;25.95;7.18;;;;;;;;;;5018910;28;20057;-79
2023/03/26 07:00:12;;;;;;;18.85;5.50;;;;;;;;;;5017096;28;20023;-79
2023/03/26 07:02:38;;;;;;;12.85;5.70;;;;;;;;;;5016301;28;20072;-79
2023/03/26 07:05:04;;;;;;;25.45;6.93;;;;;;;;;;5021920;28;20025;-79
2023/03/26 07:07:31;;;;;;;22.27;6.90;;;;;;;;;;5015238;28;20049;-79
2023/03/26 07:09:57;;;;;;;23.35;6.28;;;;;;;;;;5007131;28;20124;-80
2023/03/26 07:12:23;;;;;;;28.83;8.57;;;;;;;;;;5004897;28;20030;-80
2023/03/26 07:14:49;;;;;;;11.25;5.38;;;;;;;;;;5016032;28;20030;-80
2023/03/26 07:17:15;;;;;;;15.90;6.05;;;;;;;;;;5000975;28;20018;-79
2023/03/26 07:19:42;;;;;;;27.58;6.95;;;;;;;;;;5027101;28;20038;-79
2023/03/26 07:22:19;;;;;;;18.17;5.38;;;;;;;;;;5013828;28;20499;-80
2023/03/26 07:24:46;;;;;;;15.60;5.47;;;;;;;;;;5022573;28;20054;-79
2023/03/26 07:27:12;;;;;;;14.98;5.63;;;;;;;;;;5016428;28;20511;-79
2023/03/26 07:30:04;;;;;;;18.05;6.50;;;;;;;;;;5001306;28;20045;-79
2023/03/26 07:32:34;;;;;;;19.88;5.32;;;;;;;;;;5025097;28;20097;-80
2023/03/26 07:35:12;;;;;;;7.68;4.72;;;;;;;;;;5014012;28;20026;-79
2023/03/26 07:37:49;;;;;;;19.20;5.55;;;;;;;;;;5010133;28;20054;-79
2023/03/26 07:40:33;;;;;;;26.08;7.07;;;;;;;;;;5012950;28;20022;-82
2023/03/26 07:43:18;;;;;;;15.38;5.30;;;;;;;;;;5022262;28;20429;-81
2023/03/26 07:45:44;;;;;;;14.38;5.63;;;;;;;;;;5016288;28;20036;-82
2023/03/26 07:48:15;;;;;;;11.55;4.53;;;;;;;;;;5017564;28;20037;-80
2023/03/26 07:50:42;;;;;;;16.10;4.88;;;;;;;;;;5016808;28;20032;-80
2023/03/26 07:53:08;;;;;;;16.73;4.82;;;;;;;;;;5014456;28;20018;-80
2023/03/26 07:55:38;;;;;;;11.02;4.03;;;;;;;;;;5008041;28;20025;-79
2023/03/26 07:58:16;;;;;;;9.82;4.38;;;;;;;;;;5022594;28;20034;-81
2023/03/26 08:00:48;;;;;;;10.57;4.53;;;;;;;;;;5019826;28;20094;-79
2023/03/26 08:03:33;;;;;;;11.43;4.88;;;;;;;;;;5020043;28;20056;-80
2023/03/26 08:06:07;;;;;;;14.02;3.97;;;;;;;;;;5021824;28;20036;-80
2023/03/26 08:08:56;;;;;;;10.07;3.67;;;;;;;;;;5020900;28;20042;-79
2023/03/26 08:11:34;;;;;;;13.93;4.85;;;;;;;;;;5008586;28;20101;-80
2023/03/26 08:14:08;;;;;;;10.95;4.45;;;;;;;;;;5018702;28;20080;-79
2023/03/26 08:16:41;;;;;;;14.77;4.18;;;;;;;;;;5018605;28;20033;-82
2023/03/26 08:19:26;;;;;;;15.18;4.72;;;;;;;;;;5018631;28;20026;-79
2023/03/26 08:21:58;;;;;;;8.27;4.37;;;;;;;;;;5013158;28;20038;-80
2023/03/26 08:24:35;;;;;;;26.80;5.30;;;;;;;;;;5021357;28;20049;-80
2023/03/26 08:27:08;;;;;;;12.43;4.10;;;;;;;;;;5022241;28;20023;-79
2023/03/26 08:29:37;;;;;;;12.57;4.80;;;;;;;;;;5024234;28;20029;-79
2023/03/26 08:32:04;;;;;;;13.07;4.22;;;;;;;;;;5022736;28;20033;-78
2023/03/26 08:34:40;;;;;;;11.68;4.38;;;;;;;;;;5021471;28;20029;-79
2023/03/26 08:37:06;;;;;;;10.93;4.90;;;;;;;;;;5024235;28;20029;-79
2023/03/26 08:39:32;;;;;;;15.63;5.53;;;;;;;;;;5021477;28;20022;-78
2023/03/26 08:42:17;;;;;;;12.23;4.50;;;;;;;;;;5005445;28;20153;-79
2023/03/26 08:45:02;;;;;;;14.20;4.90;;;;;;;;;;5020655;28;20124;-78
2023/03/26 08:47:31;;;;;;;11.73;6.20;;;;;;;;;;5021745;28;20281;-80
2023/03/26 08:50:09;;;;;;;11.93;4.25;;;;;;;;;;5023472;28;20031;-79
2023/03/26 08:52:39;;;;;;;13.68;5.00;;;;;;;;;;5030448;28;20034;-81
2023/03/26 08:55:23;;;;;;;18.48;5.03;;;;;;;;;;5025005;28;20101;-78
2023/03/26 08:57:58;;;;;;;18.02;4.88;;;;;;;;;;5019459;28;20036;-77
2023/03/26 09:00:36;;;;;;;14.95;4.35;;;;;;;;;;5020539;28;20453;-78
2023/03/26 09:03:15;;;;;;;14.10;4.93;;;;;;;;;;5023120;28;20060;-79
2023/03/26 09:05:41;;;;;;;20.10;5.13;;;;;;;;;;5013335;28;20099;-79
2023/03/26 09:08:19;;;;;;;13.60;4.72;;;;;;;;;;5021535;28;20073;-80
2023/03/26 09:11:04;;;;;;;9.23;3.97;;;;;;;;;;5020508;28;20028;-80
2023/03/26 09:13:50;;;;;;;18.42;4.18;;;;;;;;;;5022380;28;20034;-79
2023/03/26 09:16:22;;;;;;;13.70;3.88;;;;;;;;;;5003380;28;20570;-78
2023/03/26 09:18:52;;;;;;;15.63;4.40;;;;;;;;;;5020862;28;20029;-80
2023/03/26 09:21:30;;;;;;;15.52;4.38;;;;;;;;;;5015665;28;20037;-79
2023/03/26 09:24:16;;;;;;;13.65;3.50;;;;;;;;;;5008478;28;20046;-80
2023/03/26 09:27:01;;;;;;;11.73;5.15;;;;;;;;;;5016945;28;20125;-81
2023/03/26 09:29:50;;;;;;;17.50;5.15;;;;;;;;;;5017971;28;20034;-81
2023/03/26 09:32:19;;;;;;;8.77;4.63;;;;;;;;;;4987723;28;20296;-79
2023/03/26 09:34:45;;;;;;;12.45;4.40;;;;;;;;;;5011236;28;20022;-79
2023/03/26 09:37:25;;;;;;;10.45;3.63;;;;;;;;;;5021792;28;20026;-78
2023/03/26 09:39:57;;;;;;;10.55;4.38;;;;;;;;;;5015071;28;20799;-80
2023/03/26 09:42:31;;;;;;;14.38;4.30;;;;;;;;;;5011484;28;20026;-79
2023/03/26 09:44:57;;;;;;;13.77;4.75;;;;;;;;;;5014384;28;20489;-79
2023/03/26 09:47:42;;;;;;;10.15;3.17;;;;;;;;;;5013873;28;20023;-79
2023/03/26 09:50:28;;;;;;;12.47;3.90;;;;;;;;;;5015053;28;20041;-79
2023/03/26 09:53:04;;;;;;;15.48;4.60;;;;;;;;;;5013641;28;20041;-79
2023/03/26 09:55:43;;;;;;;11.45;3.67;;;;;;;;;;4995480;28;20029;-78
2023/03/26 09:58:18;;;;;;;8.82;3.28;;;;;;;;;;5019747;28;20049;-79
2023/03/26 10:00:44;;;;;;;12.38;3.80;;;;;;;;;;5018542;28;20057;-78
2023/03/26 10:03:29;;;;;;;10.55;3.47;;;;;;;;;;5017837;28;20018;-79
2023/03/26 10:06:14;;;;;;;11.13;3.30;;;;;;;;;;5012243;28;20030;-78
2023/03/26 10:09:12;;;;;;;11.75;2.95;;;;;;;;;;5018586;28;20079;-78
2023/03/26 10:11:50;;;;;;;5.70;3.13;;;;;;;;;;4999675;28;20034;-79
2023/03/26 10:14:32;;;;;;;6.10;2.50;;;;;;;;;;5011149;28;20030;-80
2023/03/26 10:17:18;;;;;;;6.00;2.50;;;;;;;;;;5026929;28;20117;-79
2023/03/26 10:19:44;;;;;;;;;;;;;;;;;;5014058;28;20109;-79
2023/03/26 10:22:10;;;;;;;;;;;;;;;;;;5002180;28;19909;-79
2023/03/26 10:24:43;;;;;;;8.07;2.75;;;;;;;;;;5013198;28;19972;-79
2023/03/26 10:27:27;;;;;;;5.63;3.58;;;;;;;;;;5015639;28;20033;-79
2023/03/26 10:29:53;;;;;;;6.88;2.95;;;;;;;;;;5019200;28;20019;-80
2023/03/26 10:32:33;;;;;;;11.90;2.88;;;;;;;;;;5016833;28;20033;-79
2023/03/26 10:35:22;;;;;;;9.20;3.22;;;;;;;;;;5016781;28;20041;-79
2023/03/26 10:37:49;;;;;;;8.63;3.67;;;;;;;;;;4990714;28;20043;-78
2023/03/26 10:40:29;;;;;;;10.38;3.92;;;;;;;;;;5012434;28;20022;-78
2023/03/26 10:43:14;;;;;;;10.43;3.42;;;;;;;;;;5018457;28;20030;-79
2023/03/26 10:45:47;;;;;;;10.23;3.50;;;;;;;;;;5011166;28;20038;-79
2023/03/26 10:48:22;;;;;;;9.65;3.10;;;;;;;;;;5012315;28;20098;-79
2023/03/26 10:50:51;;;;;;;14.02;3.70;;;;;;;;;;5019740;28;20026;-80
2023/03/26 10:53:17;;;;;;;9.93;3.88;;;;;;;;;;5011168;28;20041;-79
2023/03/26 10:55:45;;;;;;;10.77;4.40;;;;;;;;;;5020400;28;20045;-79
2023/03/26 10:58:30;;;;;;;5.75;3.38;;;;;;;;;;5013057;28;20477;-79
2023/03/26 11:01:01;;;;;;;14.02;3.55;;;;;;;;;;4997359;28;20499;-80
2023/03/26 11:03:27;;;;;;;8.25;3.88;;;;;;;;;;5015661;28;20030;-79
2023/03/26 11:05:53;;;;;;;8.30;3.47;;;;;;;;;;5020294;28;20022;-79
2023/03/26 11:08:22;;;;;;;6.93;3.25;;;;;;;;;;5016082;28;20059;-79
2023/03/26 11:11:05;;;;;;;10.27;3.28;;;;;;;;;;5017586;28;20026;-79
2023/03/26 11:13:50;;;;;;;10.77;4.22;;;;;;;;;;5010944;28;20022;-79
2023/03/26 11:16:34;;;;;;;14.93;3.47;;;;;;;;;;5016101;28;20082;-79
2023/03/26 11:19:04;;;;;;;7.85;3.22;;;;;;;;;;5019693;28;20018;-79
2023/03/26 11:21:35;;;;;;;6.13;2.83;;;;;;;;;;5002249;28;20034;-81
2023/03/26 11:24:20;;;;;;;13.00;3.47;;;;;;;;;;5015716;28;20048;-79
2023/03/26 11:26:54;;;;;;;10.23;3.10;;;;;;;;;;5017048;28;20026;-79
2023/03/26 11:29:33;;;;;;;6.60;3.08;;;;;;;;;;5023723;28;20108;-80
2023/03/26 11:31:59;;;;;;;13.25;3.60;;;;;;;;;;5019675;28;20041;-80
2023/03/26 11:34:33;;;;;;;8.90;3.85;;;;;;;;;;5023570;28;20030;-80
2023/03/26 11:37:01;;;;;;;9.48;3.13;;;;;;;;;;5019693;28;20030;-81
2023/03/26 11:39:28;;;;;;;17.80;3.50;;;;;;;;;;5022175;28;20034;-80
2023/03/26 11:42:06;;;;;;;15.43;4.32;;;;;;;;;;5012010;28;20577;-82
2023/03/26 11:44:36;;;;;;;5.35;3.15;;;;;;;;;;5017542;28;20104;-82
2023/03/26 11:47:04;;;;;;;10.50;2.75;;;;;;;;;;5021216;28;20026;-80
2023/03/26 11:49:30;;;;;;;8.95;3.13;;;;;;;;;;5016950;28;20026;-81
2023/03/26 11:51:57;;;;;;;14.77;3.33;;;;;;;;;;5007275;28;20048;-80
2023/03/26 11:54:24;;;;;;;7.60;2.85;;;;;;;;;;5026535;28;20036;-81
2023/03/26 11:56:52;;;;;;;9.23;3.58;;;;;;;;;;5009754;28;20036;-81
2023/03/26 11:59:29;;;;;;;6.00;2.80;;;;;;;;;;5017661;28;20030;-82
2023/03/26 12:02:04;;;;;;;9.23;2.88;;;;;;;;;;5020811;28;20042;-81
2023/03/26 12:04:32;;;;;;;;;;;;;;;;;;5021546;28;20037;-80
2023/03/26 12:07:06;;;;;;;9.32;2.70;;;;;;;;;;5023190;28;19909;-79
2023/03/26 12:09:35;;;;;;;7.90;2.60;;;;;;;;;;5020790;28;20192;-81
2023/03/26 12:12:03;;;;;;;6.32;2.63;;;;;;;;;;5016891;28;20061;-80
2023/03/26 12:14:31;;;;;;;4.95;2.80;;;;;;;;;;4999848;28;20093;-83
2023/03/26 12:17:06;;;;;;;4.97;2.60;;;;;;;;;;5019974;28;20056;-82
2023/03/26 12:19:43;;;;;;;9.85;3.05;;;;;;;;;;5030270;28;20327;-80
2023/03/26 12:22:29;;;;;;;6.30;2.60;;;;;;;;;;5016465;23;20054;-77
2023/03/26 12:25:14;;;;;;;4.80;2.47;;;;;;;;;;4986345;28;20072;-78
2023/03/26 12:28:03;;;;;;;7.22;2.85;;;;;;;;;;4987694;28;20138;-78
2023/03/26 12:30:35;;;;;;;7.50;2.65;;;;;;;;;;4985729;28;20462;-78
2023/03/26 12:33:06;;;;;;;8.57;2.97;;;;;;;;;;4987175;28;20031;-77
2023/03/26 12:35:33;;;;;;;7.28;2.95;;;;;;;;;;4990207;28;20030;-77
2023/03/26 12:38:20;;;;;;;7.50;2.85;;;;;;;;;;4982554;28;20109;-76
2023/03/26 12:40:48;;;;;;;6.65;3.10;;;;;;;;;;4970449;28;20488;-77
2023/03/26 12:43:22;;;;;;;10.70;3.28;;;;;;;;;;4985675;28;20192;-77
2023/03/26 12:45:51;;;;;;;4.35;2.60;;;;;;;;;;4984915;28;20566;-77
2023/03/26 12:48:17;;;;;;;5.75;2.63;;;;;;;;;;4987296;28;20031;-77
2023/03/26 12:50:44;;;;;;;9.35;2.60;;;;;;;;;;4971430;28;20909;-77
2023/03/26 12:53:23;;;;;;;7.20;3.05;;;;;;;;;;4969827;28;20034;-77
2023/03/26 12:55:58;;;;;;;6.85;2.85;;;;;;;;;;4965865;28;20034;-77
2023/03/26 12:58:31;;;;;;;3.35;2.53;;;;;;;;;;4970644;28;20058;-77
2023/03/26 13:01:05;;;;;;;7.80;2.75;;;;;;;;;;4987659;28;20058;-77
2023/03/26 13:03:31;;;;;;;10.20;2.85;;;;;;;;;;4969861;28;20030;-78
2023/03/26 13:06:16;;;;;;;8.77;2.90;;;;;;;;;;4973742;28;20088;-78
2023/03/26 13:08:45;;;;;;;16.13;2.78;;;;;;;;;;4968898;28;20038;-78
2023/03/26 13:11:14;;;;;;;10.05;3.45;;;;;;;;;;4969857;28;20034;-77
2023/03/26 13:13:46;;;;;;;7.80;2.80;;;;;;;;;;4977509;28;20037;-77
2023/03/26 13:16:21;;;;;;;11.45;2.80;;;;;;;;;;4976448;28;20057;-79
2023/03/26 13:18:56;;;;;;;9.75;2.80;;;;;;;;;;4986811;28;20122;-78
2023/03/26 13:21:22;;;;;;;4.47;2.53;;;;;;;;;;4991385;28;20049;-78
2023/03/26 13:24:07;;;;;;;5.32;2.40;;;;;;;;;;4970233;28;20030;-78
2023/03/26 13:26:53;;;;;;;9.07;3.20;;;;;;;;;;4987554;28;20037;-79
2023/03/26 13:29:22;;;;;;;5.88;2.38;;;;;;;;;;4942405;28;20438;-76
2023/03/26 13:32:12;;;;;;;9.93;2.50;;;;;;;;;;4989427;28;22508;-76
2023/03/26 13:34:53;;;;;;;4.85;2.13;;;;;;;;;;4956343;28;20821;-77
2023/03/26 13:37:25;;;;;;;8.50;2.70;;;;;;;;;;4970918;28;20391;-78
2023/03/26 13:40:10;;;;;;;5.55;2.40;;;;;;;;;;4990177;28;20029;-78
2023/03/26 13:42:55;;;;;;;5.40;2.70;;;;;;;;;;4970852;28;20034;-85
2023/03/26 13:45:36;;;;;;;7.38;3.60;;;;;;;;;;4989897;28;20062;-78
2023/03/26 13:48:03;;;;;;;5.28;2.13;;;;;;;;;;4970565;28;20043;-78
2023/03/26 13:50:35;;;;;;;8.77;3.20;;;;;;;;;;4972250;28;20027;-78
2023/03/26 13:53:11;;;;;;;5.75;2.50;;;;;;;;;;4978268;28;20030;-79
2023/03/26 13:55:40;;;;;;;6.22;2.88;;;;;;;;;;4988018;28;20080;-85
2023/03/26 13:58:27;;;;;;;6.70;2.70;;;;;;;;;;4972215;28;20030;-79
2023/03/26 14:01:00;;;;;;;4.95;2.33;;;;;;;;;;4971097;28;20522;-79
2023/03/26 14:03:38;;;;;;;8.75;2.70;;;;;;;;;;4991206;28;20125;-78
2023/03/26 14:06:10;;;;;;;10.20;2.97;;;;;;;;;;4973749;28;20041;-77
2023/03/26 14:08:41;;;;;;;6.80;2.50;;;;;;;;;;4990034;28;20093;-76
2023/03/26 14:11:16;;;;;;;8.35;2.58;;;;;;;;;;4987730;28;20041;-77
2023/03/26 14:13:55;;;;;;;10.15;3.17;;;;;;;;;;4967428;28;20527;-78
2023/03/26 14:16:23;;;;;;;6.78;2.72;;;;;;;;;;4988852;28;20031;-78
2023/03/26 14:18:54;;;;;;;6.70;2.58;;;;;;;;;;4990023;28;20022;-78
2023/03/26 14:21:42;;;;;;;11.52;3.95;;;;;;;;;;4986368;28;20059;-79
2023/03/26 14:24:34;;;;;;;6.18;3.20;;;;;;;;;;4986346;28;20034;-78
2023/03/26 14:27:09;;;;;;;5.88;3.00;;;;;;;;;;4988560;28;20121;-79
2023/03/26 14:29:36;;;;;;;;;;;;;;;;;;4987881;28;20038;-78
2023/03/26 14:32:11;;;;;;;7.55;2.50;;;;;;;;;;4987868;28;19918;-78
2023/03/26 14:34:46;;;;;;;4.35;2.65;;;;;;;;;;4969217;28;20487;-78
2023/03/26 14:37:31;;;;;;;5.25;2.47;;;;;;;;;;4985204;28;20650;-78
2023/03/26 14:39:58;;;;;;;7.57;2.88;;;;;;;;;;4988419;28;20022;-78
2023/03/26 14:42:24;;;;;;;3.38;2.25;;;;;;;;;;4985197;28;20129;-79
2023/03/26 14:45:20;;;;;;;5.63;2.42;;;;;;;;;;4988150;28;20558;-78
2023/03/26 14:48:04;;;;;;;5.43;2.05;;;;;;;;;;4986742;28;20030;-79
2023/03/26 14:50:46;;;;;;;6.72;2.25;;;;;;;;;;4970036;28;20153;-78
2023/03/26 14:53:18;;;;;;;5.95;2.20;;;;;;;;;;4968153;28;20034;-79
2023/03/26 14:55:44;;;;;;;6.72;2.42;;;;;;;;;;4983979;28;20031;-77
2023/03/26 14:58:29;;;;;;;9.15;2.85;;;;;;;;;;4984937;28;20050;-77
2023/03/26 15:01:07;;;;;;;8.45;2.88;;;;;;;;;;4987539;28;20033;-80